Terminal Aerodrome Forecast
Issued by NWS

Home | Current Version | Previous Version | Graphics & Text | Print | Product List | Glossary On
Versions: 1 2 3 4 5 6 7 8 9 10 11 12 13 14 15 16 17 18
000
FTUS43 KBIS 272300
TAFDIK
TAF
KDIK 272331Z 2800/2824 36008KT P6SM SCT040
     FM280200 04005KT P6SM FEW045
     FM280600 08003KT P6SM FEW050 FEW090
     FM281000 15004KT P6SM SCT070
     FM281700 07006KT P6SM SCT060=

USA.gov is the U.S. government's official web portal to all federal, state and local government web resources and services.